createdAt,value
2022-12-01T00:01:10.970Z,7.86
2022-12-01T00:03:37.745Z,7.86
2022-12-01T00:06:16.152Z,7.85
2022-12-01T00:09:06.882Z,7.85
2022-12-01T00:11:35.174Z,7.83
2022-12-01T00:14:01.690Z,7.83
2022-12-01T00:16:28.233Z,7.83
2022-12-01T00:18:54.738Z,7.84
2022-12-01T00:21:23.570Z,7.83
2022-12-01T00:23:52.931Z,7.81
2022-12-01T00:26:20.701Z,7.82
2022-12-01T00:28:55.634Z,7.82
2022-12-01T00:31:22.171Z,7.81
2022-12-01T00:33:48.624Z,7.79
2022-12-01T00:36:15.520Z,7.80
2022-12-01T00:38:42.086Z,7.80
2022-12-01T00:41:08.554Z,7.80
2022-12-01T00:43:34.990Z,7.81
2022-12-01T00:46:01.523Z,7.81
2022-12-01T00:48:28.058Z,7.82
2022-12-01T00:50:55.087Z,7.82
2022-12-01T00:53:21.900Z,7.81
2022-12-01T00:55:48.334Z,7.78
2022-12-01T00:58:15.038Z,7.80
2022-12-01T01:00:42.868Z,7.77
2022-12-01T01:03:09.725Z,7.75
2022-12-01T01:05:37.459Z,7.75
2022-12-01T01:08:07.771Z,7.72
2022-12-01T01:10:37.382Z,7.72
2022-12-01T01:13:03.870Z,7.70
2022-12-01T01:15:30.378Z,7.69
2022-12-01T01:17:56.757Z,7.67
2022-12-01T01:20:23.288Z,7.68
2022-12-01T01:22:49.724Z,7.67
2022-12-01T01:25:16.237Z,7.64
2022-12-01T01:27:42.622Z,7.66
2022-12-01T01:30:09.516Z,7.65
2022-12-01T01:32:35.949Z,7.63
2022-12-01T01:35:02.367Z,7.60
2022-12-01T01:37:28.731Z,7.57
2022-12-01T01:39:55.142Z,7.57
2022-12-01T01:42:22.047Z,7.54
2022-12-01T01:44:50.124Z,7.53
2022-12-01T01:47:32.907Z,7.54
2022-12-01T01:50:06.221Z,7.53
2022-12-01T01:52:35.987Z,7.50
2022-12-01T01:55:02.836Z,7.50
2022-12-01T01:57:33.233Z,7.51
2022-12-01T02:00:10.063Z,7.51
2022-12-01T02:02:40.581Z,7.49
2022-12-01T02:05:11.003Z,7.48
2022-12-01T02:07:41.834Z,7.50
2022-12-01T02:10:11.357Z,7.50
2022-12-01T02:16:01.637Z,7.45
2022-12-01T02:18:46.839Z,7.46
2022-12-01T02:21:53.936Z,7.42
2022-12-01T02:24:26.062Z,7.44
2022-12-01T02:27:04.981Z,7.42
2022-12-01T02:29:50.503Z,7.39
2022-12-01T02:32:48.155Z,7.37
2022-12-01T02:35:48.340Z,7.35
2022-12-01T02:38:19.800Z,7.34
2022-12-01T02:41:10.539Z,7.37
2022-12-01T02:44:09.211Z,7.33
2022-12-01T02:46:40.542Z,7.33
2022-12-01T02:49:15.909Z,7.31
2022-12-01T02:51:44.737Z,7.30
2022-12-01T02:54:13.981Z,7.31
2022-12-01T02:56:40.809Z,7.30
2022-12-01T02:59:15.237Z,7.32
2022-12-01T03:01:50.455Z,7.29
2022-12-01T03:04:26.338Z,7.29
2022-12-01T03:07:03.437Z,7.26
2022-12-01T03:10:01.086Z,7.28
2022-12-01T03:12:59.199Z,7.29
2022-12-01T03:15:30.275Z,7.31
2022-12-01T03:18:07.681Z,7.33
2022-12-01T03:20:43.856Z,7.33
2022-12-01T03:23:19.846Z,7.31
2022-12-01T03:25:49.321Z,7.33
2022-12-01T03:28:21.986Z,7.32
2022-12-01T03:30:55.486Z,7.34
2022-12-01T03:33:27.803Z,7.36
2022-12-01T03:36:01.249Z,7.36
2022-12-01T03:38:30.330Z,7.35
2022-12-01T03:41:16.525Z,7.34
2022-12-01T03:43:48.813Z,7.30
2022-12-01T03:46:46.259Z,7.28
2022-12-01T03:49:14.991Z,7.28
2022-12-01T03:51:56.040Z,7.29
2022-12-01T03:55:11.849Z,7.27
2022-12-01T03:57:44.014Z,7.30
2022-12-01T04:00:11.576Z,7.32
2022-12-01T04:02:38.235Z,7.33
2022-12-01T04:05:09.277Z,7.34
2022-12-01T04:07:36.852Z,7.32
2022-12-01T04:10:04.491Z,7.33
2022-12-01T04:12:32.714Z,7.34
2022-12-01T04:15:05.387Z,7.34
2022-12-01T04:17:31.905Z,7.35
2022-12-01T04:19:58.423Z,7.39
2022-12-01T04:22:25.594Z,7.40
2022-12-01T04:24:52.469Z,7.40
2022-12-01T04:27:20.199Z,7.42
2022-12-01T04:29:47.121Z,7.43
2022-12-01T04:32:13.819Z,7.45
2022-12-01T04:34:40.373Z,7.47
2022-12-01T04:37:07.359Z,7.44
2022-12-01T04:39:34.433Z,7.46
2022-12-01T04:42:00.843Z,7.44
2022-12-01T04:44:33.010Z,7.46
2022-12-01T04:47:01.249Z,7.43
2022-12-01T04:49:27.723Z,7.45
2022-12-01T04:51:54.272Z,7.47
2022-12-01T04:54:20.810Z,7.46
2022-12-01T04:56:47.186Z,7.48
2022-12-01T04:59:13.910Z,7.48
2022-12-01T05:01:40.579Z,7.48
2022-12-01T05:04:07.281Z,7.49
2022-12-01T05:06:33.796Z,7.48
2022-12-01T05:09:01.757Z,7.51
2022-12-01T05:11:29.609Z,7.49
2022-12-01T05:13:56.015Z,7.52
2022-12-01T05:16:26.054Z,7.52
2022-12-01T05:19:22.392Z,7.52
2022-12-01T05:21:50.411Z,7.52
2022-12-01T05:24:17.820Z,7.49
2022-12-01T05:26:45.069Z,7.50
2022-12-01T05:29:12.381Z,7.49
2022-12-01T05:31:39.828Z,7.50
2022-12-01T05:34:07.037Z,7.50
2022-12-01T05:36:33.668Z,7.49
2022-12-01T05:39:00.157Z,7.47
2022-12-01T05:41:26.555Z,7.47
2022-12-01T05:43:52.935Z,7.48
2022-12-01T05:46:19.428Z,7.47
2022-12-01T05:48:46.506Z,7.47
2022-12-01T05:51:15.902Z,7.48
2022-12-01T05:53:42.909Z,7.49
2022-12-01T05:56:09.831Z,7.49
2022-12-01T05:58:36.829Z,7.49
2022-12-01T06:01:03.984Z,7.50
2022-12-01T06:03:30.390Z,7.51
2022-12-01T06:05:56.842Z,7.50
2022-12-01T06:08:23.229Z,7.50
2022-12-01T06:10:49.643Z,7.49
2022-12-01T06:13:16.068Z,7.49
2022-12-01T06:15:42.611Z,7.50
2022-12-01T06:18:09.171Z,7.48
2022-12-01T06:20:35.773Z,7.49
2022-12-01T06:23:02.144Z,7.49
2022-12-01T06:25:28.557Z,7.50
2022-12-01T06:27:58.421Z,7.47
2022-12-01T06:30:25.783Z,7.45
2022-12-01T06:32:52.253Z,7.45
2022-12-01T06:35:18.758Z,7.45
2022-12-01T06:37:45.286Z,7.45
2022-12-01T06:40:12.328Z,7.46
2022-12-01T06:42:38.920Z,7.50
2022-12-01T06:45:05.751Z,7.51
2022-12-01T06:47:32.442Z,7.54
2022-12-01T06:49:58.933Z,7.55
2022-12-01T06:52:25.376Z,7.56
2022-12-01T06:54:52.847Z,7.57
2022-12-01T06:57:19.615Z,7.54
2022-12-01T06:59:46.566Z,7.54
2022-12-01T07:02:13.757Z,7.54
2022-12-01T07:04:40.191Z,7.55
2022-12-01T07:07:06.623Z,7.56
2022-12-01T07:09:33.573Z,7.56
2022-12-01T07:12:00.027Z,7.56
2022-12-01T07:14:27.076Z,7.57
2022-12-01T07:16:53.617Z,7.55
2022-12-01T07:19:20.135Z,7.55
2022-12-01T07:21:46.603Z,7.57
2022-12-01T07:24:13.381Z,7.57
2022-12-01T07:26:42.194Z,7.56
2022-12-01T07:29:10.198Z,7.57
2022-12-01T07:31:38.056Z,7.58
2022-12-01T07:34:05.413Z,7.57
2022-12-01T07:36:32.019Z,7.59
2022-12-01T07:38:58.574Z,7.60
2022-12-01T07:41:25.366Z,7.58
2022-12-01T07:43:51.788Z,7.58
2022-12-01T07:46:24.638Z,7.56
2022-12-01T07:48:52.229Z,7.54
2022-12-01T07:51:19.364Z,7.54
2022-12-01T07:53:47.684Z,7.53
2022-12-01T07:56:14.498Z,7.52
2022-12-01T07:58:41.220Z,7.52
2022-12-01T08:01:10.293Z,7.52
2022-12-01T08:03:37.343Z,7.51
2022-12-01T08:06:05.033Z,7.52
2022-12-01T08:08:33.215Z,7.50
2022-12-01T08:11:05.470Z,7.50
2022-12-01T08:13:31.913Z,7.50
2022-12-01T08:15:58.368Z,7.51
2022-12-01T08:18:25.070Z,7.49
2022-12-01T08:20:51.610Z,7.49
2022-12-01T08:23:18.147Z,7.52
2022-12-01T08:25:44.507Z,7.53
2022-12-01T08:28:10.995Z,7.54
2022-12-01T08:30:37.532Z,7.53
2022-12-01T08:33:04.000Z,7.55
2022-12-01T08:35:30.489Z,7.53
2022-12-01T08:37:56.891Z,7.56
2022-12-01T08:40:23.410Z,7.53
2022-12-01T08:42:52.612Z,7.53
2022-12-01T08:45:19.445Z,7.54
2022-12-01T08:47:46.397Z,7.56
2022-12-01T08:50:12.833Z,7.55
2022-12-01T08:52:39.277Z,7.54
2022-12-01T08:55:06.502Z,7.57
2022-12-01T08:57:32.981Z,7.57
2022-12-01T08:59:59.410Z,7.56
2022-12-01T09:02:25.939Z,7.54
2022-12-01T09:04:52.456Z,7.54
2022-12-01T09:07:24.603Z,7.54
2022-12-01T09:09:53.043Z,7.54
2022-12-01T09:12:19.639Z,7.56
2022-12-01T09:14:48.293Z,7.55
2022-12-01T09:17:16.561Z,7.54
2022-12-01T09:19:44.061Z,7.54
2022-12-01T09:22:11.682Z,7.54
2022-12-01T09:24:38.758Z,7.56
2022-12-01T09:27:06.052Z,7.56
2022-12-01T09:29:32.694Z,7.56
2022-12-01T09:32:00.200Z,7.58
2022-12-01T09:34:27.956Z,7.59
2022-12-01T09:36:56.486Z,7.60
2022-12-01T09:39:23.146Z,7.63
2022-12-01T09:42:07.593Z,7.61
2022-12-01T09:44:57.106Z,7.63
2022-12-01T09:47:44.908Z,7.64
2022-12-01T09:50:14.599Z,7.67
2022-12-01T09:52:47.033Z,7.66
2022-12-01T09:55:16.978Z,7.65
2022-12-01T09:57:46.735Z,7.68
2022-12-01T10:00:25.153Z,7.67
2022-12-01T10:02:54.226Z,7.66
2022-12-01T10:05:24.641Z,7.67
2022-12-01T10:08:04.071Z,7.66
2022-12-01T10:10:35.835Z,7.66
2022-12-01T10:13:02.457Z,7.65
2022-12-01T10:15:47.220Z,7.64
2022-12-01T10:18:34.352Z,7.66
2022-12-01T10:21:06.624Z,7.68
2022-12-01T10:23:42.954Z,7.69
2022-12-01T10:26:23.270Z,7.66
2022-12-01T10:28:59.105Z,7.67
2022-12-01T10:31:38.267Z,7.68
2022-12-01T10:34:14.484Z,7.72
2022-12-01T10:36:41.010Z,7.70
2022-12-01T10:39:14.367Z,7.73
2022-12-01T10:41:41.500Z,7.75
2022-12-01T10:44:08.614Z,7.78
2022-12-01T10:46:44.595Z,7.83
2022-12-01T10:49:13.950Z,7.89
2022-12-01T10:52:07.455Z,7.89
2022-12-01T10:54:36.460Z,7.96
2022-12-01T10:57:03.942Z,8.01
2022-12-01T10:59:30.284Z,8.04
2022-12-01T11:01:57.953Z,8.09
2022-12-01T11:04:50.561Z,8.12
2022-12-01T11:07:21.855Z,8.18
2022-12-01T11:10:02.557Z,8.21
2022-12-01T11:12:29.346Z,8.24
2022-12-01T11:14:57.349Z,8.26
2022-12-01T11:17:29.162Z,8.28
2022-12-01T11:19:55.870Z,8.31
2022-12-01T11:22:25.919Z,8.31
2022-12-01T11:24:52.279Z,8.37
2022-12-01T11:27:25.032Z,8.45
2022-12-01T11:29:55.889Z,8.49
2022-12-01T11:32:26.729Z,8.52
2022-12-01T11:35:07.343Z,8.56
2022-12-01T11:38:21.165Z,8.60
2022-12-01T11:40:47.687Z,8.68
2022-12-01T11:43:21.587Z,8.72
2022-12-01T11:45:48.356Z,8.75
2022-12-01T11:48:20.579Z,8.80
2022-12-01T11:51:02.340Z,8.83
2022-12-01T11:53:32.329Z,8.90
2022-12-01T11:56:23.614Z,8.96
2022-12-01T11:58:56.833Z,9.04
2022-12-01T12:01:34.941Z,9.04
2022-12-01T12:04:20.264Z,9.03
2022-12-01T12:06:59.452Z,9.05
2022-12-01T12:09:36.059Z,9.03
2022-12-01T12:12:15.094Z,9.01
2022-12-01T12:14:48.502Z,8.99
2022-12-01T12:17:26.731Z,8.97
2022-12-01T12:20:29.423Z,8.92
2022-12-01T12:23:57.835Z,8.88
2022-12-01T12:26:30.407Z,8.87
2022-12-01T12:29:13.635Z,8.85
2022-12-01T12:32:12.710Z,8.79
2022-12-01T12:35:06.872Z,8.76
2022-12-01T12:37:51.586Z,8.68
2022-12-01T12:40:42.768Z,8.63
2022-12-01T12:43:27.401Z,8.61
2022-12-01T12:46:22.818Z,8.59
2022-12-01T12:49:22.944Z,8.57
2022-12-01T12:51:56.284Z,8.55
2022-12-01T12:54:39.674Z,8.58
2022-12-01T12:57:19.346Z,8.58
2022-12-01T12:59:54.753Z,8.55
2022-12-01T13:02:28.040Z,8.55
2022-12-01T13:05:01.587Z,8.56
2022-12-01T13:07:42.254Z,8.54
2022-12-01T13:10:23.092Z,8.56
2022-12-01T13:12:56.874Z,8.58
2022-12-01T13:15:23.725Z,8.58
2022-12-01T13:17:55.826Z,8.60
2022-12-01T13:20:27.546Z,8.60
2022-12-01T13:22:55.391Z,8.58
2022-12-01T13:25:32.921Z,8.59
2022-12-01T13:28:02.109Z,8.60
2022-12-01T13:30:28.877Z,8.59
2022-12-01T13:33:03.797Z,8.62
2022-12-01T13:35:38.618Z,8.63
2022-12-01T13:38:26.080Z,8.66
2022-12-01T13:41:12.883Z,8.66
2022-12-01T13:43:59.498Z,8.66
2022-12-01T13:46:50.924Z,8.71
2022-12-01T13:49:38.311Z,8.71
2022-12-01T13:52:23.101Z,8.70
2022-12-01T13:55:24.421Z,8.73
2022-12-01T13:58:13.153Z,8.72
2022-12-01T14:00:41.243Z,8.77
2022-12-01T14:03:16.748Z,8.76
2022-12-01T14:05:59.146Z,8.79
2022-12-01T14:08:28.951Z,8.77
2022-12-01T14:11:01.518Z,8.77
2022-12-01T14:13:29.061Z,8.76
2022-12-01T14:16:04.216Z,8.74
2022-12-01T14:18:35.669Z,8.73
2022-12-01T14:21:05.502Z,8.74
2022-12-01T14:24:00.825Z,8.70
2022-12-01T14:26:30.298Z,8.70
2022-12-01T14:28:59.911Z,8.69
2022-12-01T14:31:35.383Z,8.64
2022-12-01T14:34:12.069Z,8.60
2022-12-01T14:36:50.390Z,8.58
2022-12-01T14:39:25.969Z,8.56
2022-12-01T14:41:58.229Z,8.54
2022-12-01T14:44:33.442Z,8.52
2022-12-01T14:47:10.750Z,8.49
2022-12-01T14:49:59.323Z,8.44
2022-12-01T14:52:28.824Z,8.41
2022-12-01T14:54:59.157Z,8.37
2022-12-01T14:57:34.429Z,8.32
2022-12-01T15:00:20.032Z,8.29
2022-12-01T15:02:58.879Z,8.26
2022-12-01T15:05:28.313Z,8.23
2022-12-01T15:08:18.583Z,8.21
2022-12-01T15:11:10.865Z,8.18
2022-12-01T15:13:53.695Z,8.15
2022-12-01T15:16:23.241Z,8.13
2022-12-01T15:18:50.575Z,8.11
2022-12-01T15:21:26.463Z,8.10
2022-12-01T15:23:52.851Z,8.07
2022-12-01T15:26:21.204Z,8.05
2022-12-01T15:28:47.862Z,8.05
2022-12-01T15:31:14.594Z,8.04
2022-12-01T15:33:53.230Z,8.03
2022-12-01T15:36:19.831Z,8.02
2022-12-01T15:38:48.023Z,8.02
2022-12-01T15:41:29.187Z,8.02
2022-12-01T15:43:59.122Z,8.01
2022-12-01T15:46:31.156Z,8.00
2022-12-01T15:49:17.995Z,7.97
2022-12-01T15:51:45.181Z,7.97
2022-12-01T15:54:21.347Z,7.96
2022-12-01T15:56:52.459Z,7.95
2022-12-01T15:59:40.690Z,7.93
2022-12-01T16:02:22.074Z,7.89
2022-12-01T16:04:49.526Z,7.87
2022-12-01T16:07:16.276Z,7.85
2022-12-01T16:09:55.745Z,7.83
2022-12-01T16:12:26.858Z,7.79
2022-12-01T16:15:08.459Z,7.75
2022-12-01T16:17:42.757Z,7.73
2022-12-01T16:20:17.198Z,7.73
2022-12-01T16:22:49.034Z,7.72
2022-12-01T16:25:18.890Z,7.69
2022-12-01T16:27:55.823Z,7.69
2022-12-01T16:30:25.811Z,7.68
2022-12-01T16:33:01.362Z,7.65
2022-12-01T16:35:33.806Z,7.64
2022-12-01T16:38:05.308Z,7.62
2022-12-01T16:40:31.864Z,7.60
2022-12-01T16:42:58.299Z,7.58
2022-12-01T16:45:26.684Z,7.58
2022-12-01T16:47:53.225Z,7.57
2022-12-01T16:50:21.714Z,7.59
2022-12-01T16:52:48.263Z,7.59
2022-12-01T16:55:33.130Z,7.58
2022-12-01T16:57:59.545Z,7.58
2022-12-01T17:00:26.076Z,7.59
2022-12-01T17:02:52.741Z,7.59
2022-12-01T17:05:19.407Z,7.60
2022-12-01T17:07:46.017Z,7.60
2022-12-01T17:10:13.034Z,7.61
2022-12-01T17:12:39.769Z,7.61
2022-12-01T17:15:06.648Z,7.59
2022-12-01T17:17:33.154Z,7.59
2022-12-01T17:19:59.537Z,7.59
2022-12-01T17:22:25.921Z,7.60
2022-12-01T17:24:54.524Z,7.59
2022-12-01T17:27:22.169Z,7.59
2022-12-01T17:29:48.907Z,7.59
2022-12-01T17:32:15.359Z,7.59
2022-12-01T17:34:42.000Z,7.59
2022-12-01T17:37:08.423Z,7.58
2022-12-01T17:39:34.889Z,7.57
2022-12-01T17:42:01.342Z,7.56
2022-12-01T17:44:27.730Z,7.57
2022-12-01T17:46:54.208Z,7.57
2022-12-01T17:49:20.918Z,7.57
2022-12-01T17:51:47.376Z,7.56
2022-12-01T17:54:13.888Z,7.57
2022-12-01T17:56:40.280Z,7.56
2022-12-01T17:59:06.668Z,7.56
2022-12-01T18:01:33.611Z,7.57
2022-12-01T18:04:00.109Z,7.56
2022-12-01T18:06:26.970Z,7.55
2022-12-01T18:08:53.679Z,7.55
2022-12-01T18:11:20.742Z,7.55
2022-12-01T18:13:49.368Z,7.53
2022-12-01T18:16:30.021Z,7.53
2022-12-01T18:18:58.388Z,7.51
2022-12-01T18:21:27.043Z,7.49
2022-12-01T18:23:59.518Z,7.48
2022-12-01T18:26:27.701Z,7.46
2022-12-01T18:28:56.076Z,7.46
2022-12-01T18:31:23.728Z,7.44
2022-12-01T18:33:50.815Z,7.44
2022-12-01T18:36:22.494Z,7.44
2022-12-01T18:38:50.468Z,7.43
2022-12-01T18:41:17.762Z,7.42
2022-12-01T18:43:44.341Z,7.43
2022-12-01T18:46:12.897Z,7.43
2022-12-01T18:48:44.580Z,7.42
2022-12-01T18:51:11.938Z,7.43
2022-12-01T18:53:38.708Z,7.42
2022-12-01T18:56:08.149Z,7.43
2022-12-01T18:58:35.012Z,7.43
2022-12-01T19:01:02.613Z,7.42
2022-12-01T19:03:30.748Z,7.41
2022-12-01T19:05:57.183Z,7.41
2022-12-01T19:08:23.802Z,7.39
2022-12-01T19:11:00.499Z,7.38
2022-12-01T19:13:27.226Z,7.38
2022-12-01T19:15:53.713Z,7.39
2022-12-01T19:18:20.295Z,7.38
2022-12-01T19:20:47.024Z,7.38
2022-12-01T19:23:13.516Z,7.36
2022-12-01T19:25:40.071Z,7.37
2022-12-01T19:28:06.526Z,7.39
2022-12-01T19:30:32.956Z,7.40
2022-12-01T19:32:59.413Z,7.41
2022-12-01T19:35:25.866Z,7.42
2022-12-01T19:37:52.244Z,7.43
2022-12-01T19:40:18.798Z,7.44
2022-12-01T19:42:45.696Z,7.43
2022-12-01T19:45:12.233Z,7.41
2022-12-01T19:47:39.353Z,7.38
2022-12-01T19:50:06.401Z,7.35
2022-12-01T19:52:33.952Z,7.32
2022-12-01T19:55:00.303Z,7.31
2022-12-01T19:57:26.818Z,7.29
2022-12-01T19:59:53.191Z,7.27
2022-12-01T20:02:22.967Z,7.27
2022-12-01T20:04:52.747Z,7.26
2022-12-01T20:07:19.254Z,7.25
2022-12-01T20:09:49.716Z,7.24
2022-12-01T20:12:16.608Z,7.22
2022-12-01T20:14:43.055Z,7.19
2022-12-01T20:17:14.334Z,7.17
2022-12-01T20:19:42.261Z,7.14
2022-12-01T20:22:08.760Z,7.13
2022-12-01T20:24:36.626Z,7.12
2022-12-01T20:27:03.051Z,7.12
2022-12-01T20:29:29.998Z,7.11
2022-12-01T20:31:59.091Z,7.10
2022-12-01T20:34:28.856Z,7.12
2022-12-01T20:36:56.063Z,7.12
2022-12-01T20:39:22.725Z,7.13
2022-12-01T20:41:49.551Z,7.12
2022-12-01T20:44:16.935Z,7.11
2022-12-01T20:46:47.640Z,7.12
2022-12-01T20:49:16.050Z,7.12
2022-12-01T20:51:42.674Z,7.12
2022-12-01T20:54:28.228Z,7.13
2022-12-01T20:56:55.103Z,7.14
2022-12-01T20:59:21.484Z,7.14
2022-12-01T21:01:47.970Z,7.15
2022-12-01T21:04:14.347Z,7.16
2022-12-01T21:06:40.727Z,7.15
2022-12-01T21:09:08.074Z,7.17
2022-12-01T21:12:00.644Z,7.18
2022-12-01T21:14:30.043Z,7.17
2022-12-01T21:17:00.582Z,7.17
2022-12-01T21:19:35.457Z,7.17
2022-12-01T21:22:01.877Z,7.09
2022-12-01T21:24:35.010Z,7.04
2022-12-01T21:27:16.304Z,6.96
2022-12-01T21:29:48.484Z,6.90
2022-12-01T21:32:28.896Z,6.86
2022-12-01T21:35:01.015Z,6.78
2022-12-01T21:37:28.071Z,6.77
2022-12-01T21:39:56.294Z,6.78
2022-12-01T21:42:27.970Z,6.74
2022-12-01T21:44:56.269Z,6.74
2022-12-01T21:47:30.414Z,6.73
2022-12-01T21:49:58.858Z,6.71
2022-12-01T21:52:34.311Z,6.69
2022-12-01T21:55:15.771Z,6.66
2022-12-01T21:57:46.526Z,6.65
2022-12-01T22:00:36.738Z,6.63
2022-12-01T22:03:09.118Z,6.64
2022-12-01T22:05:35.428Z,6.63
2022-12-01T22:08:19.946Z,6.63
2022-12-01T22:11:12.944Z,6.61
2022-12-01T22:13:43.654Z,6.61
2022-12-01T22:16:20.617Z,6.61
2022-12-01T22:18:51.107Z,6.63
2022-12-01T22:21:28.348Z,6.64
2022-12-01T22:24:24.583Z,6.61
2022-12-01T22:27:02.691Z,6.62
2022-12-01T22:29:36.000Z,6.61
2022-12-01T22:32:20.249Z,6.56
2022-12-01T22:34:55.092Z,6.55
2022-12-01T22:37:46.004Z,6.50
2022-12-01T22:40:43.172Z,6.51
2022-12-01T22:43:15.515Z,6.50
2022-12-01T22:45:47.269Z,6.50
2022-12-01T22:48:25.184Z,6.51
2022-12-01T22:50:52.183Z,6.52
2022-12-01T22:53:26.054Z,6.52
2022-12-01T22:55:55.628Z,6.54
2022-12-01T22:58:29.776Z,6.53
2022-12-01T23:01:01.007Z,6.54
2022-12-01T23:03:27.744Z,6.53
2022-12-01T23:05:57.368Z,6.52
2022-12-01T23:08:24.113Z,6.52
2022-12-01T23:10:51.158Z,6.52
2022-12-01T23:13:22.917Z,6.52
2022-12-01T23:15:52.947Z,6.50
2022-12-01T23:18:20.852Z,6.51
2022-12-01T23:20:52.996Z,6.50
2022-12-01T23:23:27.873Z,6.49
2022-12-01T23:25:54.634Z,6.49
2022-12-01T23:28:21.472Z,6.47
2022-12-01T23:30:52.454Z,6.44
2022-12-01T23:33:21.883Z,6.42
2022-12-01T23:36:04.244Z,6.39
2022-12-01T23:38:37.312Z,6.35
2022-12-01T23:41:12.447Z,6.30
2022-12-01T23:43:41.467Z,6.28
2022-12-01T23:46:11.420Z,6.27
2022-12-01T23:48:45.690Z,6.24
2022-12-01T23:51:39.875Z,6.18
2022-12-01T23:54:13.873Z,6.19
2022-12-01T23:56:40.313Z,6.17
2022-12-01T23:59:12.886Z,6.17
